This is the latest recevied weather packets stored in our database for station/object IU2EVW-13. If no packets are shown the sender has not sent any weather packets the latest 10 day(s).
| Time | Temp. | Humidity | Pressure | Rain* | Wind** | Luminosity | Snow |
|---|---|---|---|---|---|---|---|
| 1788152737 | 17.78° C | 67% | 1019.2 hPa | - | - | - | - |
| 1788151536 | 17.78° C | 66% | 1019.1 hPa | - | - | - | - |
| 1788150335 | 18.33° C | 65% | 1018.9 hPa | - | - | - | - |
| 1788149133 | 18.33° C | 64% | 1018.8 hPa | - | - | - | - |
| 1788147932 | 17.78° C | 67% | 1019 hPa | - | - | - | - |
| 1788146731 | 18.33° C | 66% | 1019 hPa | - | - | - | - |
| 1788145528 | 18.33° C | 64% | 1019.2 hPa | - | - | - | - |
| 1788144327 | 18.33° C | 63% | 1019.3 hPa | - | - | - | - |
| 1788143125 | 18.33° C | 66% | 1019.3 hPa | - | - | - | - |
| 1788141924 | 18.89° C | 62% | 1019.3 hPa | - | - | - | - |
| 1788140723 | 18.89° C | 64% | 1019.5 hPa | - | - | - | - |
| 1788139522 | 18.89° C | 64% | 1019.5 hPa | - | - | - | - |
| 1788138320 | 18.89° C | 64% | 1019.3 hPa | - | - | - | - |
| 1788137119 | 18.89° C | 62% | 1019.3 hPa | - | - | - | - |
| 1788135918 | 18.89° C | 64% | 1019.5 hPa | - | - | - | - |
| 1788134716 | 19.44° C | 62% | 1019.4 hPa | - | - | - | - |
| 1788133515 | 19.44° C | 63% | 1019.5 hPa | - | - | - | - |
| 1788132313 | 20° C | 61% | 1019.6 hPa | - | - | - | - |
| 1788131111 | 20° C | 62% | 1019.8 hPa | - | - | - | - |
| 1788129910 | 20° C | 59% | 1019.9 hPa | - | - | - | - |
| 1788128709 | 20° C | 61% | 1019.7 hPa | - | - | - | - |
| 1788127508 | 20° C | 62% | 1019.7 hPa | - | - | - | - |
| 1788126306 | 20° C | 62% | 1019.6 hPa | - | - | - | - |
| 1788125105 | 20° C | 61% | 1019.5 hPa | - | - | - | - |
| 1788123904 | 20.56° C | 59% | 1019.4 hPa | - | - | - | - |
* Rain since midnight (hover to see other rain measurements)
** Current wind speed in m/s (hover to see current wind gust speed)